クアラルンプール の空港の天気 - METARとTAF

クアラルンプール国際空港 ( WMKK / KUL ) - マレーシア スランゴール州セパン
飛行場実況気象(Metar)
観測時間10/21 01:00 MYT (10/20 17:00 UTC)
風向・風速不定 2m/s
視程8000m
天気現象
少しの雲 雲底高度 520m
全天の8割程度の雲 雲底高度 4270m
気温27℃
湿度84%
気圧1012hPa
METARWMKK 201700Z VRB03KT 8000 FEW017CB BKN140 27/24 Q1012 NOSIG
過去の天気等 Google飛行場航空写真 Wunderground天気予報

過去48時間のMETAR

飛行場予報(TAF)
発表時間: 10/20 19:00 MYT (10/20 11:00 UTC)
予報対象時間: 20日20時 MYT ~ 22日2時 MYT
風向・風速南西 3m/s
視程10km以上
少しの積乱雲 雲底高度 520m
20日21時 MYT ~ 20日22時 MYT に徐々に
風向・風速不定 1m/s
少しの雲 雲底高度 910m
21日4時 MYT ~ 21日6時 MYT に徐々に
視程8000m
少しの雲 雲底高度 550m
21日12時 MYT ~ 21日14時 MYT に徐々に
風向・風速南西 4m/s
視程10km以上
少しの積乱雲 雲底高度 520m
21日20時 MYT ~ 21日22時 MYT に徐々に
風向・風速不定 1m/s
TAF WMKK 201100Z 2012/2118 22005KT 9999 FEW017CB
BECMG 2013/2014 VRB02KT FEW030
BECMG 2020/2022 8000 FEW018
BECMG 2104/2106 23007KT 9999 FEW017CB
BECMG 2112/2114 VRB02KT